createdAt,value
2023-02-09T00:00:19.139Z,-8.40
2023-02-09T00:02:45.974Z,-8.40
2023-02-09T00:05:12.631Z,-8.30
2023-02-09T00:07:39.407Z,-8.40
2023-02-09T00:10:06.750Z,-8.30
2023-02-09T00:12:52.219Z,-8.50
2023-02-09T00:15:19.122Z,-8.40
2023-02-09T00:17:45.827Z,-8.50
2023-02-09T00:20:12.672Z,-8.60
2023-02-09T00:22:39.341Z,-8.50
2023-02-09T00:25:06.324Z,-8.50
2023-02-09T00:27:35.513Z,-8.40
2023-02-09T00:30:03.764Z,-8.40
2023-02-09T00:32:32.065Z,-8.40
2023-02-09T00:34:58.747Z,-8.30
2023-02-09T00:37:25.419Z,-8.20
2023-02-09T00:39:52.058Z,-8.10
2023-02-09T00:42:19.182Z,-8.10
2023-02-09T00:44:45.967Z,-8.30
2023-02-09T00:47:12.682Z,-8.30
2023-02-09T00:49:40.412Z,-8.50
2023-02-09T00:52:09.551Z,-8.60
2023-02-09T00:54:36.786Z,-8.90
2023-02-09T00:57:05.372Z,-8.90
2023-02-09T00:59:35.726Z,-9.00
2023-02-09T01:02:03.130Z,-8.90
2023-02-09T01:04:29.976Z,-8.70
2023-02-09T01:06:56.732Z,-8.70
2023-02-09T01:09:23.753Z,-8.60
2023-02-09T01:11:50.426Z,-8.50
2023-02-09T01:14:17.971Z,-8.50
2023-02-09T01:16:44.750Z,-8.50
2023-02-09T01:19:13.109Z,-8.70
2023-02-09T01:21:40.330Z,-8.60
2023-02-09T01:24:07.169Z,-8.70
2023-02-09T01:26:33.960Z,-8.70
2023-02-09T01:29:00.626Z,-8.70
2023-02-09T01:31:30.188Z,-8.90
2023-02-09T01:33:58.865Z,-9.00
2023-02-09T01:36:28.683Z,-9.00
2023-02-09T01:38:56.938Z,-8.90
2023-02-09T01:41:24.237Z,-9.00
2023-02-09T01:43:53.718Z,-9.20
2023-02-09T01:46:22.343Z,-9.30
2023-02-09T01:48:52.720Z,-9.30
2023-02-09T01:51:21.307Z,-9.20
2023-02-09T01:53:48.172Z,-9.20
2023-02-09T01:56:25.696Z,-9.20
2023-02-09T01:58:52.694Z,-9.20
2023-02-09T02:01:20.065Z,-9.10
2023-02-09T02:03:47.131Z,-9.10
2023-02-09T02:06:17.056Z,-9.00
2023-02-09T02:09:00.947Z,-8.90
2023-02-09T02:11:29.675Z,-9.00
2023-02-09T02:13:57.407Z,-9.20
2023-02-09T02:16:47.403Z,-9.20
2023-02-09T02:19:47.911Z,-9.30
2023-02-09T02:22:43.593Z,-9.30
2023-02-09T02:25:33.847Z,-9.20
2023-02-09T02:28:22.112Z,-9.20
2023-02-09T02:31:10.218Z,-9.10
2023-02-09T02:33:49.371Z,-8.90
2023-02-09T02:36:41.574Z,-8.90
2023-02-09T02:39:40.689Z,-8.80
2023-02-09T02:42:38.107Z,-8.70
2023-02-09T02:45:33.073Z,-8.90
2023-02-09T02:48:15.844Z,-9.20
2023-02-09T02:50:53.096Z,-9.20
2023-02-09T02:53:25.570Z,-9.30
2023-02-09T02:55:54.861Z,-9.10
2023-02-09T02:58:24.001Z,-9.00
2023-02-09T03:00:53.679Z,-9.10
2023-02-09T03:03:23.750Z,-9.10
2023-02-09T03:05:51.494Z,-9.10
2023-02-09T03:08:18.203Z,-9.10
2023-02-09T03:10:45.699Z,-9.00
2023-02-09T03:13:32.854Z,-8.90
2023-02-09T03:16:08.922Z,-9.00
2023-02-09T03:18:51.065Z,-9.10
2023-02-09T03:21:37.231Z,-9.10
2023-02-09T03:24:11.525Z,-9.10
2023-02-09T03:26:48.767Z,-9.20
2023-02-09T03:29:17.967Z,-9.30
2023-02-09T03:31:45.848Z,-9.20
2023-02-09T03:34:12.752Z,-9.20
2023-02-09T03:36:40.620Z,-9.10
2023-02-09T03:39:07.331Z,-9.10
2023-02-09T03:41:33.978Z,-9.20
2023-02-09T03:44:19.192Z,-9.10
2023-02-09T03:46:45.965Z,-9.10
2023-02-09T03:49:14.938Z,-9.10
2023-02-09T03:51:42.857Z,-9.10
2023-02-09T03:54:09.611Z,-9.10
2023-02-09T03:56:37.411Z,-9.20
2023-02-09T03:59:07.260Z,-9.10
2023-02-09T04:01:35.329Z,-9.10
2023-02-09T04:04:03.117Z,-9.20
2023-02-09T04:06:32.053Z,-9.40
2023-02-09T04:08:59.822Z,-9.50
2023-02-09T04:11:27.131Z,-9.50
2023-02-09T04:13:54.087Z,-9.40
2023-02-09T04:16:20.953Z,-9.40
2023-02-09T04:18:47.889Z,-9.40
2023-02-09T04:21:14.669Z,-9.30
2023-02-09T04:23:41.689Z,-9.40
2023-02-09T04:26:08.417Z,-9.30
2023-02-09T04:28:35.301Z,-9.30
2023-02-09T04:31:02.093Z,-9.30
2023-02-09T04:33:28.798Z,-9.30
2023-02-09T04:35:55.468Z,-9.40
2023-02-09T04:38:23.028Z,-9.40
2023-02-09T04:40:51.178Z,-9.40
2023-02-09T04:43:18.419Z,-9.40
2023-02-09T04:45:45.093Z,-9.40
2023-02-09T04:48:15.806Z,-9.40
2023-02-09T04:50:42.695Z,-9.50
2023-02-09T04:53:10.132Z,-9.50
2023-02-09T04:55:38.157Z,-9.50
2023-02-09T04:58:24.060Z,-9.50
2023-02-09T05:00:50.801Z,-9.40
2023-02-09T05:03:17.669Z,-9.40
2023-02-09T05:05:44.328Z,-9.40
2023-02-09T05:08:11.024Z,-9.40
2023-02-09T05:10:37.868Z,-9.40
2023-02-09T05:13:04.633Z,-9.40
2023-02-09T05:15:31.340Z,-9.50
2023-02-09T05:17:57.999Z,-9.50
2023-02-09T05:20:24.651Z,-9.40
2023-02-09T05:22:51.389Z,-9.40
2023-02-09T05:25:18.138Z,-9.50
2023-02-09T05:27:44.844Z,-9.50
2023-02-09T05:30:11.839Z,-9.50
2023-02-09T05:32:38.619Z,-9.50
2023-02-09T05:35:08.349Z,-9.50
2023-02-09T05:37:35.265Z,-9.40
2023-02-09T05:40:02.034Z,-9.40
2023-02-09T05:42:28.925Z,-9.40
2023-02-09T05:44:55.587Z,-9.50
2023-02-09T05:47:24.637Z,-9.50
2023-02-09T05:49:52.384Z,-9.40
2023-02-09T05:52:19.876Z,-9.40
2023-02-09T05:54:49.533Z,-9.30
2023-02-09T05:57:16.987Z,-9.20
2023-02-09T05:59:43.726Z,-9.20
2023-02-09T06:02:10.939Z,-9.20
2023-02-09T06:04:37.772Z,-9.20
2023-02-09T06:07:04.482Z,-9.30
2023-02-09T06:09:31.190Z,-9.20
2023-02-09T06:11:57.953Z,-9.30
2023-02-09T06:14:24.716Z,-9.40
2023-02-09T06:16:51.375Z,-9.40
2023-02-09T06:19:20.496Z,-9.50
2023-02-09T06:21:47.647Z,-9.50
2023-02-09T06:24:14.806Z,-9.60
2023-02-09T06:26:42.078Z,-9.50
2023-02-09T06:29:09.349Z,-9.50
2023-02-09T06:31:36.249Z,-9.40
2023-02-09T06:34:03.191Z,-9.50
2023-02-09T06:36:29.836Z,-9.50
2023-02-09T06:38:56.490Z,-9.60
2023-02-09T06:41:23.150Z,-9.50
2023-02-09T06:43:49.839Z,-9.60
2023-02-09T06:46:16.680Z,-9.50
2023-02-09T06:48:43.376Z,-9.60
2023-02-09T06:51:15.279Z,-9.60
2023-02-09T06:53:42.757Z,-9.50
2023-02-09T06:56:10.749Z,-9.40
2023-02-09T06:58:37.960Z,-9.30
2023-02-09T07:01:09.533Z,-9.20
2023-02-09T07:03:36.868Z,-9.20
2023-02-09T07:06:13.812Z,-9.20
2023-02-09T07:08:41.088Z,-9.10
2023-02-09T07:11:13.064Z,-9.10
2023-02-09T07:13:39.896Z,-9.00
2023-02-09T07:16:08.983Z,-9.00
2023-02-09T07:18:36.060Z,-8.90
2023-02-09T07:21:06.099Z,-8.70
2023-02-09T07:23:33.260Z,-8.60
2023-02-09T07:26:10.634Z,-8.60
2023-02-09T07:28:37.529Z,-8.60
2023-02-09T07:31:06.923Z,-8.50
2023-02-09T07:33:34.596Z,-8.50
2023-02-09T07:36:07.500Z,-8.30
2023-02-09T07:38:34.928Z,-8.10
2023-02-09T07:41:03.846Z,-7.90
2023-02-09T07:43:30.907Z,-7.80
2023-02-09T07:46:05.190Z,-7.60
2023-02-09T07:48:32.949Z,-7.50
2023-02-09T07:50:59.958Z,-7.50
2023-02-09T07:53:27.244Z,-7.50
2023-02-09T07:55:54.036Z,-7.30
2023-02-09T07:58:21.147Z,-7.10
2023-02-09T08:00:49.958Z,-7.00
2023-02-09T08:03:20.199Z,-6.70
2023-02-09T08:05:50.507Z,-6.50
2023-02-09T08:08:17.188Z,-6.50
2023-02-09T08:10:44.208Z,-6.40
2023-02-09T08:13:11.759Z,-6.60
2023-02-09T08:15:47.220Z,-6.50
2023-02-09T08:18:21.986Z,-6.20
2023-02-09T08:20:50.935Z,-5.90
2023-02-09T08:23:30.906Z,-5.60
2023-02-09T08:25:59.795Z,-5.40
2023-02-09T08:28:41.832Z,-5.10
2023-02-09T08:31:15.863Z,-5.00
2023-02-09T08:33:43.695Z,-4.70
2023-02-09T08:36:10.886Z,-4.50
2023-02-09T08:38:37.943Z,-4.20
2023-02-09T08:41:09.388Z,-4.00
2023-02-09T08:43:36.356Z,-3.80
2023-02-09T08:46:08.625Z,-3.60
2023-02-09T08:48:36.335Z,-3.50
2023-02-09T08:51:03.883Z,-3.30
2023-02-09T08:53:31.080Z,-3.10
2023-02-09T08:55:58.115Z,-3.00
2023-02-09T08:58:26.031Z,-2.90
2023-02-09T09:00:56.810Z,-2.80
2023-02-09T09:03:27.787Z,-2.60
2023-02-09T09:05:59.781Z,-2.50
2023-02-09T09:08:27.428Z,-2.40
2023-02-09T09:10:54.125Z,-2.30
2023-02-09T09:13:21.294Z,-2.00
2023-02-09T09:15:48.475Z,-1.80
2023-02-09T09:18:15.663Z,-1.50
2023-02-09T09:20:43.057Z,-1.30
2023-02-09T09:23:10.795Z,-1.10
2023-02-09T09:25:41.568Z,-1.00
2023-02-09T09:28:08.724Z,-0.80
2023-02-09T09:30:36.462Z,-0.70
2023-02-09T09:33:04.277Z,-0.60
2023-02-09T09:35:31.668Z,-0.50
2023-02-09T09:37:58.598Z,-0.40
2023-02-09T09:40:31.410Z,-0.30
2023-02-09T09:43:04.454Z,-0.10
2023-02-09T09:45:35.275Z,-0.20
2023-02-09T09:48:02.396Z,0.00
2023-02-09T09:50:38.564Z,0.00
2023-02-09T09:53:18.043Z,0.20
2023-02-09T09:55:46.068Z,0.40
2023-02-09T09:58:18.676Z,0.40
2023-02-09T10:00:45.559Z,0.50
2023-02-09T10:03:20.919Z,0.60
2023-02-09T10:05:50.482Z,0.40
2023-02-09T10:08:31.791Z,0.30
2023-02-09T10:11:02.748Z,0.50
2023-02-09T10:13:40.026Z,0.60
2023-02-09T10:16:27.727Z,0.60
2023-02-09T10:18:57.119Z,0.50
2023-02-09T10:21:25.977Z,0.50
2023-02-09T10:24:01.909Z,0.50
2023-02-09T10:26:33.778Z,0.60
2023-02-09T10:29:24.795Z,0.70
2023-02-09T10:32:03.748Z,0.70
2023-02-09T10:34:38.567Z,0.90
2023-02-09T10:37:14.444Z,0.90
2023-02-09T10:39:41.302Z,1.10
2023-02-09T10:42:28.267Z,1.10
2023-02-09T10:44:57.538Z,1.10
2023-02-09T10:47:29.885Z,1.20
2023-02-09T10:50:14.602Z,1.40
2023-02-09T10:52:56.948Z,1.50
2023-02-09T10:55:36.800Z,1.50
2023-02-09T10:58:21.013Z,1.70
2023-02-09T11:01:27.975Z,1.70
2023-02-09T11:04:04.037Z,1.90
2023-02-09T11:06:54.311Z,2.10
2023-02-09T11:09:29.475Z,1.90
2023-02-09T11:11:56.301Z,1.90
2023-02-09T11:14:23.285Z,1.90
2023-02-09T11:17:13.068Z,2.00
2023-02-09T11:20:12.188Z,2.20
2023-02-09T11:23:09.735Z,2.30
2023-02-09T11:25:38.960Z,2.40
2023-02-09T11:28:14.485Z,2.40
2023-02-09T11:31:23.280Z,2.10
2023-02-09T11:34:01.210Z,2.20
2023-02-09T11:36:55.617Z,2.10
2023-02-09T11:39:31.775Z,2.10
2023-02-09T11:42:36.267Z,2.20
2023-02-09T11:45:09.334Z,2.30
2023-02-09T11:48:04.442Z,2.40
2023-02-09T11:50:52.089Z,2.50
2023-02-09T11:53:45.008Z,2.70
2023-02-09T11:56:12.621Z,2.70
2023-02-09T11:58:57.122Z,2.90
2023-02-09T12:01:38.888Z,2.80
2023-02-09T12:04:19.522Z,2.90
2023-02-09T12:06:51.039Z,2.70
2023-02-09T12:09:31.761Z,2.60
2023-02-09T12:12:15.417Z,2.70
2023-02-09T12:15:03.356Z,2.90
2023-02-09T12:17:50.487Z,2.90
2023-02-09T12:20:46.282Z,3.10
2023-02-09T12:23:31.864Z,3.10
2023-02-09T12:26:16.633Z,3.20
2023-02-09T12:29:03.522Z,3.20
2023-02-09T12:31:51.133Z,3.00
2023-02-09T12:34:27.440Z,3.00
2023-02-09T12:37:13.993Z,3.00
2023-02-09T12:40:02.692Z,2.90
2023-02-09T12:42:42.396Z,3.00
2023-02-09T12:45:33.126Z,3.10
2023-02-09T12:48:08.649Z,3.00
2023-02-09T12:50:48.521Z,3.00
2023-02-09T12:53:24.448Z,3.20
2023-02-09T12:55:58.107Z,3.30
2023-02-09T12:58:44.248Z,3.50
2023-02-09T13:01:12.451Z,3.70
2023-02-09T13:03:57.955Z,3.60
2023-02-09T13:06:40.696Z,3.60
2023-02-09T13:09:09.514Z,3.80
2023-02-09T13:11:55.574Z,3.80
2023-02-09T13:14:24.254Z,3.80
2023-02-09T13:17:31.015Z,3.80
2023-02-09T13:20:07.186Z,3.60
2023-02-09T13:22:58.660Z,3.60
2023-02-09T13:25:27.662Z,3.70
2023-02-09T13:27:54.469Z,3.70
2023-02-09T13:30:29.682Z,3.70
2023-02-09T13:33:08.720Z,3.80
2023-02-09T13:35:52.284Z,3.80
2023-02-09T13:38:21.392Z,3.70
2023-02-09T13:40:50.162Z,3.40
2023-02-09T13:43:29.001Z,3.40
2023-02-09T13:45:57.171Z,3.40
2023-02-09T13:48:38.406Z,3.40
2023-02-09T13:51:16.156Z,3.50
2023-02-09T13:53:56.183Z,3.70
2023-02-09T13:56:23.169Z,3.90
2023-02-09T13:58:50.042Z,4.10
2023-02-09T14:01:21.309Z,4.60
2023-02-09T14:03:58.216Z,5.00
2023-02-09T14:06:35.616Z,5.10
2023-02-09T14:09:05.254Z,5.60
2023-02-09T14:11:42.643Z,6.60
2023-02-09T14:14:53.128Z,7.20
2023-02-09T14:17:29.101Z,7.80
2023-02-09T14:19:57.764Z,8.40
2023-02-09T14:22:30.380Z,8.20
2023-02-09T14:24:57.076Z,8.80
2023-02-09T14:27:26.559Z,9.10
2023-02-09T14:29:54.360Z,9.70
2023-02-09T14:32:33.335Z,9.60
2023-02-09T14:35:24.819Z,9.70
2023-02-09T14:37:54.701Z,9.90
2023-02-09T14:40:31.566Z,9.90
2023-02-09T14:43:10.584Z,10.10
2023-02-09T14:45:40.794Z,9.80
2023-02-09T14:48:24.887Z,9.20
2023-02-09T14:50:55.441Z,9.50
2023-02-09T14:53:24.512Z,9.10
2023-02-09T14:55:51.890Z,8.90
2023-02-09T14:58:22.828Z,8.80
2023-02-09T15:00:50.983Z,8.80
2023-02-09T15:03:17.685Z,9.30
2023-02-09T15:05:45.096Z,9.40
2023-02-09T15:08:23.623Z,9.60
2023-02-09T15:10:53.356Z,10.00
2023-02-09T15:13:21.400Z,10.40
2023-02-09T15:15:48.436Z,10.30
2023-02-09T15:18:24.764Z,10.70
2023-02-09T15:20:51.727Z,10.90
2023-02-09T15:23:18.663Z,10.60
2023-02-09T15:25:47.369Z,10.90
2023-02-09T15:28:27.961Z,11.00
2023-02-09T15:30:56.116Z,11.50
2023-02-09T15:33:22.899Z,11.30
2023-02-09T15:35:50.142Z,11.30
2023-02-09T15:38:18.325Z,10.70
2023-02-09T15:41:08.370Z,10.40
2023-02-09T15:43:53.730Z,10.10
2023-02-09T15:46:39.579Z,9.90
2023-02-09T15:49:07.269Z,9.40
2023-02-09T15:51:36.996Z,8.10
2023-02-09T15:54:09.391Z,6.30
2023-02-09T15:56:37.083Z,5.50
2023-02-09T15:59:05.634Z,4.60
2023-02-09T16:01:35.489Z,4.10
2023-02-09T16:04:13.545Z,3.80
2023-02-09T16:06:51.611Z,3.40
2023-02-09T16:09:24.913Z,3.20
2023-02-09T16:11:51.670Z,3.00
2023-02-09T16:14:20.729Z,2.80
2023-02-09T16:16:48.296Z,2.50
2023-02-09T16:19:15.101Z,2.40
2023-02-09T16:21:46.311Z,2.20
2023-02-09T16:24:39.614Z,2.20
2023-02-09T16:27:28.065Z,2.20
2023-02-09T16:29:55.803Z,2.10
2023-02-09T16:32:24.015Z,1.90
2023-02-09T16:34:51.760Z,1.80
2023-02-09T16:37:26.797Z,1.70
2023-02-09T16:39:54.304Z,1.70
2023-02-09T16:42:21.201Z,1.70
2023-02-09T16:44:47.873Z,1.70
2023-02-09T16:47:19.762Z,1.50
2023-02-09T16:49:59.046Z,1.40
2023-02-09T16:52:27.331Z,1.30
2023-02-09T16:54:58.502Z,0.90
2023-02-09T16:57:27.323Z,0.60
2023-02-09T16:59:54.278Z,0.50
2023-02-09T17:02:50.104Z,0.40
2023-02-09T17:05:21.408Z,0.30
2023-02-09T17:07:55.197Z,0.20
2023-02-09T17:10:25.244Z,0.20
2023-02-09T17:12:53.578Z,0.20
2023-02-09T17:15:30.218Z,0.10
2023-02-09T17:18:02.927Z,0.10
2023-02-09T17:20:36.674Z,0.00
2023-02-09T17:23:04.248Z,0.00
2023-02-09T17:25:31.117Z,-0.10
2023-02-09T17:27:57.926Z,-0.20
2023-02-09T17:30:24.672Z,-0.30
2023-02-09T17:33:00.535Z,-0.30
2023-02-09T17:35:53.070Z,-0.40
2023-02-09T17:38:41.059Z,-0.50
2023-02-09T17:41:18.846Z,-0.70
2023-02-09T17:43:46.461Z,-0.80
2023-02-09T17:46:16.270Z,-0.90
2023-02-09T17:48:43.218Z,-0.80
2023-02-09T17:51:21.745Z,-0.80
2023-02-09T17:53:48.833Z,-0.90
2023-02-09T17:56:16.798Z,-0.90
2023-02-09T17:58:44.530Z,-1.00
2023-02-09T18:01:42.596Z,-1.00
2023-02-09T18:04:16.679Z,-1.10
2023-02-09T18:06:43.408Z,-1.10
2023-02-09T18:09:12.445Z,-1.40
2023-02-09T18:11:44.923Z,-1.40
2023-02-09T18:14:15.366Z,-1.50
2023-02-09T18:16:43.028Z,-1.60
2023-02-09T18:19:11.141Z,-1.60
2023-02-09T18:21:38.484Z,-1.60
2023-02-09T18:24:06.355Z,-1.70
2023-02-09T18:26:33.665Z,-1.70
2023-02-09T18:29:00.361Z,-1.70
2023-02-09T18:31:27.092Z,-1.80
2023-02-09T18:33:54.053Z,-1.80
2023-02-09T18:36:20.891Z,-1.90
2023-02-09T18:38:48.144Z,-1.90
2023-02-09T18:41:14.975Z,-2.00
2023-02-09T18:43:41.717Z,-2.10
2023-02-09T18:46:10.575Z,-2.10
2023-02-09T18:48:37.353Z,-2.20
2023-02-09T18:51:07.690Z,-2.30
2023-02-09T18:53:34.439Z,-2.30
2023-02-09T18:56:01.229Z,-2.30
2023-02-09T18:58:27.943Z,-2.30
2023-02-09T19:00:54.932Z,-2.30
2023-02-09T19:03:21.748Z,-2.40
2023-02-09T19:05:48.883Z,-2.40
2023-02-09T19:08:15.807Z,-2.40
2023-02-09T19:10:43.564Z,-2.50
2023-02-09T19:13:10.691Z,-2.40
2023-02-09T19:15:39.015Z,-2.50
2023-02-09T19:18:05.922Z,-2.50
2023-02-09T19:20:34.115Z,-2.60
2023-02-09T19:23:02.322Z,-2.70
2023-02-09T19:25:29.792Z,-2.80
2023-02-09T19:27:56.911Z,-2.80
2023-02-09T19:30:24.984Z,-2.80
2023-02-09T19:32:57.778Z,-2.80
2023-02-09T19:35:24.925Z,-2.90
2023-02-09T19:37:56.231Z,-2.90
2023-02-09T19:40:36.224Z,-2.90
2023-02-09T19:43:04.799Z,-3.00
2023-02-09T19:45:36.287Z,-3.00
2023-02-09T19:48:07.585Z,-3.00
2023-02-09T19:50:36.677Z,-3.00
2023-02-09T19:53:05.303Z,-3.00
2023-02-09T19:55:32.018Z,-3.10
2023-02-09T19:57:59.168Z,-3.20
2023-02-09T20:00:27.139Z,-3.20
2023-02-09T20:02:53.854Z,-3.20
2023-02-09T20:05:20.568Z,-3.20
2023-02-09T20:07:48.765Z,-3.20
2023-02-09T20:10:15.536Z,-3.30
2023-02-09T20:12:42.222Z,-3.20
2023-02-09T20:15:08.999Z,-3.40
2023-02-09T20:17:35.813Z,-3.40
2023-02-09T20:20:03.603Z,-3.50
2023-02-09T20:22:30.308Z,-3.70
2023-02-09T20:24:56.988Z,-3.70
2023-02-09T20:27:23.747Z,-3.70
2023-02-09T20:29:50.452Z,-3.70
2023-02-09T20:32:17.356Z,-3.70
2023-02-09T20:34:44.111Z,-3.80
2023-02-09T20:37:11.989Z,-3.80
2023-02-09T20:39:38.696Z,-3.80
2023-02-09T20:42:24.050Z,-3.90
2023-02-09T20:45:09.459Z,-3.90
2023-02-09T20:47:36.212Z,-3.90
2023-02-09T20:50:04.151Z,-4.00
2023-02-09T20:52:31.112Z,-4.00
2023-02-09T20:54:57.940Z,-4.00
2023-02-09T20:57:29.361Z,-4.00
2023-02-09T21:00:00.155Z,-4.10
2023-02-09T21:02:27.473Z,-4.20
2023-02-09T21:04:56.352Z,-4.20
2023-02-09T21:07:25.092Z,-4.20
2023-02-09T21:09:54.064Z,-4.20
2023-02-09T21:12:21.553Z,-4.20
2023-02-09T21:14:50.603Z,-4.10
2023-02-09T21:17:20.720Z,-4.20
2023-02-09T21:19:47.508Z,-4.20
2023-02-09T21:22:15.187Z,-4.30
2023-02-09T21:24:42.583Z,-4.20
2023-02-09T21:27:09.516Z,-4.30
2023-02-09T21:29:36.481Z,-4.40
2023-02-09T21:32:05.391Z,-4.40
2023-02-09T21:34:32.620Z,-4.40
2023-02-09T21:36:59.303Z,-4.40
2023-02-09T21:39:26.010Z,-4.50
2023-02-09T21:42:11.456Z,-4.50
2023-02-09T21:44:38.596Z,-4.50
2023-02-09T21:47:05.564Z,-4.50
2023-02-09T21:49:32.389Z,-4.50
2023-02-09T21:51:59.411Z,-4.50
2023-02-09T21:54:28.211Z,-4.50
2023-02-09T21:56:55.666Z,-4.60
2023-02-09T21:59:22.338Z,-4.60
2023-02-09T22:01:49.021Z,-4.60
2023-02-09T22:04:15.737Z,-4.60
2023-02-09T22:06:42.484Z,-4.60
2023-02-09T22:09:09.212Z,-4.60
2023-02-09T22:11:35.894Z,-4.60
2023-02-09T22:14:02.622Z,-4.60
2023-02-09T22:16:29.569Z,-4.60
2023-02-09T22:18:56.698Z,-4.70
2023-02-09T22:21:23.404Z,-4.80
2023-02-09T22:23:51.916Z,-4.80
2023-02-09T22:26:19.238Z,-4.80
2023-02-09T22:28:46.716Z,-4.80
2023-02-09T22:31:16.187Z,-4.80
2023-02-09T22:33:44.395Z,-4.80
2023-02-09T22:36:13.595Z,-4.80
2023-02-09T22:38:41.000Z,-4.90
2023-02-09T22:41:21.293Z,-4.80
2023-02-09T22:43:55.287Z,-4.80
2023-02-09T22:46:24.787Z,-4.70
2023-02-09T22:48:53.192Z,-4.80
2023-02-09T22:51:20.454Z,-4.90
2023-02-09T22:53:47.518Z,-4.90
2023-02-09T22:56:14.932Z,-5.00
2023-02-09T22:58:41.969Z,-5.00
2023-02-09T23:01:10.020Z,-5.00
2023-02-09T23:03:37.513Z,-4.90
2023-02-09T23:06:07.195Z,-4.90
2023-02-09T23:08:34.430Z,-4.90
2023-02-09T23:11:06.891Z,-5.00
2023-02-09T23:13:35.425Z,-5.00
2023-02-09T23:16:14.804Z,-5.00
2023-02-09T23:18:47.275Z,-5.00
2023-02-09T23:21:14.641Z,-5.10
2023-02-09T23:23:41.436Z,-5.10
2023-02-09T23:26:08.105Z,-5.10
2023-02-09T23:28:35.080Z,-5.20
2023-02-09T23:31:06.227Z,-5.10
2023-02-09T23:33:34.300Z,-5.10
2023-02-09T23:36:13.676Z,-5.20
2023-02-09T23:38:41.010Z,-5.30
2023-02-09T23:41:16.571Z,-5.30
2023-02-09T23:43:43.617Z,-5.40
2023-02-09T23:46:15.381Z,-5.40
2023-02-09T23:48:42.194Z,-5.30
2023-02-09T23:51:12.448Z,-5.30
2023-02-09T23:53:39.751Z,-5.40
2023-02-09T23:56:06.673Z,-5.40
2023-02-09T23:58:36.267Z,-5.40
